createdAt,value
2018-12-12T00:00:32.754Z,4.50
2018-12-12T00:01:35.988Z,3.90
2018-12-12T00:02:39.228Z,3.87
2018-12-12T00:03:42.495Z,3.70
2018-12-12T00:04:45.722Z,4.47
2018-12-12T00:05:48.953Z,4.57
2018-12-12T00:06:52.677Z,3.70
2018-12-12T00:07:56.481Z,3.40
2018-12-12T00:08:59.730Z,3.75
2018-12-12T00:10:03.546Z,3.60
2018-12-12T00:11:06.970Z,3.85
2018-12-12T00:12:10.229Z,3.87
2018-12-12T00:13:13.892Z,3.65
2018-12-12T00:14:18.498Z,3.47
2018-12-12T00:15:21.815Z,3.37
2018-12-12T00:16:25.037Z,2.98
2018-12-12T00:17:28.292Z,3.50
2018-12-12T00:18:31.526Z,3.87
2018-12-12T00:19:34.782Z,3.47
2018-12-12T00:20:38.462Z,3.30
2018-12-12T00:21:41.690Z,3.63
2018-12-12T00:22:44.921Z,4.07
2018-12-12T00:23:49.058Z,3.47
2018-12-12T00:24:52.263Z,3.60
2018-12-12T00:25:55.489Z,3.50
2018-12-12T00:26:58.742Z,3.70
2018-12-12T00:28:02.007Z,3.60
2018-12-12T00:29:05.700Z,3.57
2018-12-12T00:30:08.947Z,3.63
2018-12-12T00:31:12.356Z,3.77
2018-12-12T00:32:15.606Z,3.85
2018-12-12T00:33:18.831Z,4.03
2018-12-12T00:34:22.087Z,4.22
2018-12-12T00:35:25.338Z,3.95
2018-12-12T00:36:28.733Z,3.70
2018-12-12T00:37:32.007Z,4.00
2018-12-12T00:38:35.240Z,4.00
2018-12-12T00:39:38.464Z,3.90
2018-12-12T00:40:41.698Z,4.43
2018-12-12T00:41:44.942Z,4.33
2018-12-12T00:42:48.190Z,4.05
2018-12-12T00:43:51.423Z,4.30
2018-12-12T00:44:54.732Z,4.97
2018-12-12T00:45:58.112Z,4.03
2018-12-12T00:47:01.523Z,3.90
2018-12-12T00:48:04.936Z,3.75
2018-12-12T00:49:08.333Z,4.00
2018-12-12T00:50:11.632Z,4.30
2018-12-12T00:51:14.845Z,3.72
2018-12-12T00:52:18.108Z,4.47
2018-12-12T00:53:21.351Z,4.20
2018-12-12T00:54:24.564Z,4.80
2018-12-12T00:55:27.802Z,4.17
2018-12-12T00:56:31.124Z,4.40
2018-12-12T00:57:34.386Z,4.53
2018-12-12T00:58:37.624Z,4.20
2018-12-12T00:59:40.874Z,4.50
2018-12-12T01:00:44.106Z,4.93
2018-12-12T01:01:47.329Z,3.97
2018-12-12T01:02:50.584Z,4.83
2018-12-12T01:03:53.812Z,4.05
2018-12-12T01:04:57.047Z,4.40
2018-12-12T01:06:00.287Z,4.58
2018-12-12T01:07:03.596Z,4.23
2018-12-12T01:08:06.911Z,3.97
2018-12-12T01:09:10.547Z,3.65
2018-12-12T01:10:14.549Z,3.93
2018-12-12T01:11:23.494Z,3.87
2018-12-12T01:12:26.736Z,4.20
2018-12-12T01:13:29.992Z,4.20
2018-12-12T01:14:33.218Z,4.40
2018-12-12T01:15:36.575Z,4.47
2018-12-12T01:16:40.641Z,4.30
2018-12-12T01:17:43.874Z,4.50
2018-12-12T01:18:47.291Z,3.98
2018-12-12T01:19:50.530Z,4.53
2018-12-12T01:20:53.777Z,4.22
2018-12-12T01:21:57.046Z,4.22
2018-12-12T01:23:00.303Z,4.50
2018-12-12T01:24:03.872Z,4.17
2018-12-12T01:25:07.093Z,4.60
2018-12-12T01:26:10.368Z,4.33
2018-12-12T01:27:13.616Z,5.47
2018-12-12T01:28:16.866Z,5.27
2018-12-12T01:29:20.106Z,4.70
2018-12-12T01:30:23.377Z,4.40
2018-12-12T01:31:26.651Z,4.00
2018-12-12T01:32:29.882Z,4.83
2018-12-12T01:33:33.145Z,4.72
2018-12-12T01:34:36.472Z,5.23
2018-12-12T01:35:39.710Z,4.85
2018-12-12T01:36:42.966Z,4.70
2018-12-12T01:37:46.222Z,4.67
2018-12-12T01:38:49.660Z,4.90
2018-12-12T01:39:52.932Z,4.73
2018-12-12T01:40:56.163Z,5.13
2018-12-12T01:41:59.410Z,4.23
2018-12-12T01:43:02.668Z,5.07
2018-12-12T01:44:05.932Z,4.90
2018-12-12T01:45:09.246Z,4.53
2018-12-12T01:46:12.620Z,4.70
2018-12-12T01:47:15.874Z,4.13
2018-12-12T01:48:19.107Z,4.80
2018-12-12T01:49:22.417Z,4.53
2018-12-12T01:50:25.652Z,5.20
2018-12-12T01:51:28.889Z,4.57
2018-12-12T01:52:32.223Z,4.50
2018-12-12T01:53:35.517Z,4.92
2018-12-12T01:54:38.900Z,5.00
2018-12-12T01:55:42.170Z,4.90
2018-12-12T01:56:45.394Z,4.25
2018-12-12T01:57:48.652Z,4.70
2018-12-12T01:58:51.900Z,4.83
2018-12-12T01:59:55.168Z,4.67
2018-12-12T02:00:58.402Z,4.70
2018-12-12T02:02:01.713Z,4.90
2018-12-12T02:03:04.954Z,4.67
2018-12-12T02:04:08.190Z,5.35
2018-12-12T02:05:11.438Z,5.23
2018-12-12T02:06:14.674Z,5.00
2018-12-12T02:07:17.934Z,4.97
2018-12-12T02:08:27.061Z,5.30
2018-12-12T02:09:36.189Z,5.03
2018-12-12T02:10:46.236Z,4.93
2018-12-12T02:11:49.450Z,4.53
2018-12-12T02:13:04.551Z,4.93
2018-12-12T02:14:07.819Z,4.78
2018-12-12T02:15:11.079Z,5.37
2018-12-12T02:16:14.405Z,5.25
2018-12-12T02:17:18.028Z,5.22
2018-12-12T02:18:21.271Z,5.00
2018-12-12T02:19:24.740Z,4.72
2018-12-12T02:20:27.991Z,4.90
2018-12-12T02:21:31.232Z,4.80
2018-12-12T02:22:34.455Z,5.62
2018-12-12T02:23:37.693Z,5.87
2018-12-12T02:24:40.944Z,4.87
2018-12-12T02:25:44.174Z,5.23
2018-12-12T02:26:47.497Z,5.03
2018-12-12T02:27:52.131Z,5.10
2018-12-12T02:28:55.356Z,4.70
2018-12-12T02:29:58.608Z,4.87
2018-12-12T02:31:01.861Z,5.00
2018-12-12T02:32:05.103Z,4.58
2018-12-12T02:33:08.330Z,4.70
2018-12-12T02:34:11.564Z,4.70
2018-12-12T02:35:14.822Z,5.20
2018-12-12T02:36:18.111Z,5.63
2018-12-12T02:37:22.070Z,6.30
2018-12-12T02:38:26.210Z,5.17
2018-12-12T02:39:29.441Z,6.10
2018-12-12T02:40:32.700Z,5.27
2018-12-12T02:41:35.921Z,5.22
2018-12-12T02:42:39.180Z,4.43
2018-12-12T02:43:42.402Z,4.85
2018-12-12T02:44:45.725Z,4.90
2018-12-12T02:45:49.083Z,4.50
2018-12-12T02:46:52.374Z,5.10
2018-12-12T02:47:55.605Z,4.67
2018-12-12T02:48:58.838Z,4.67
2018-12-12T02:50:03.262Z,4.75
2018-12-12T02:51:06.552Z,4.85
2018-12-12T02:52:09.796Z,5.17
2018-12-12T02:53:13.036Z,5.03
2018-12-12T02:54:16.288Z,4.65
2018-12-12T02:55:19.535Z,4.62
2018-12-12T02:56:23.606Z,5.28
2018-12-12T02:57:26.900Z,5.43
2018-12-12T02:58:30.160Z,5.60
2018-12-12T02:59:33.467Z,5.50
2018-12-12T03:00:37.032Z,4.77
2018-12-12T03:01:40.447Z,5.00
2018-12-12T03:02:43.674Z,4.60
2018-12-12T03:03:46.995Z,5.13
2018-12-12T03:04:51.082Z,5.67
2018-12-12T03:05:54.316Z,5.10
2018-12-12T03:06:57.554Z,5.03
2018-12-12T03:08:00.779Z,4.50
2018-12-12T03:09:05.950Z,4.73
2018-12-12T03:10:09.245Z,4.50
2018-12-12T03:11:14.531Z,4.80
2018-12-12T03:12:17.868Z,4.50
2018-12-12T03:13:21.114Z,4.33
2018-12-12T03:14:24.443Z,4.73
2018-12-12T03:15:28.313Z,5.03
2018-12-12T03:16:31.745Z,4.30
2018-12-12T03:17:35.086Z,4.22
2018-12-12T03:18:38.382Z,4.60
2018-12-12T03:19:41.632Z,4.87
2018-12-12T03:20:44.904Z,4.83
2018-12-12T03:21:48.130Z,4.45
2018-12-12T03:22:51.379Z,4.60
2018-12-12T03:23:54.636Z,4.90
2018-12-12T03:24:57.873Z,4.35
2018-12-12T03:26:01.376Z,4.37
2018-12-12T03:27:06.378Z,4.97
2018-12-12T03:28:09.606Z,4.85
2018-12-12T03:29:12.843Z,4.47
2018-12-12T03:30:16.176Z,5.00
2018-12-12T03:31:19.672Z,5.60
2018-12-12T03:32:22.987Z,4.95
2018-12-12T03:33:26.220Z,5.03
2018-12-12T03:34:29.472Z,4.60
2018-12-12T03:35:32.692Z,4.67
2018-12-12T03:36:35.950Z,4.40
2018-12-12T03:37:39.211Z,4.40
2018-12-12T03:38:42.546Z,4.53
2018-12-12T03:39:45.786Z,4.63
2018-12-12T03:40:49.107Z,4.93
2018-12-12T03:41:52.347Z,4.70
2018-12-12T03:42:55.743Z,4.60
2018-12-12T03:43:58.997Z,4.60
2018-12-12T03:45:02.310Z,4.33
2018-12-12T03:46:05.532Z,4.77
2018-12-12T03:47:08.750Z,4.90
2018-12-12T03:48:12.150Z,4.77
2018-12-12T03:49:15.358Z,4.67
2018-12-12T03:50:18.998Z,4.33
2018-12-12T03:51:22.217Z,4.60
2018-12-12T03:52:25.504Z,4.57
2018-12-12T03:53:29.207Z,4.42
2018-12-12T03:54:32.452Z,4.87
2018-12-12T03:55:35.715Z,4.50
2018-12-12T03:56:38.960Z,5.22
2018-12-12T03:57:42.218Z,4.35
2018-12-12T03:58:45.479Z,4.25
2018-12-12T03:59:48.814Z,5.03
2018-12-12T04:00:52.056Z,5.67
2018-12-12T04:01:55.395Z,5.37
2018-12-12T04:02:58.612Z,5.50
2018-12-12T04:04:01.857Z,4.90
2018-12-12T04:05:05.354Z,4.53
2018-12-12T04:06:09.014Z,4.97
2018-12-12T04:07:12.246Z,5.23
2018-12-12T04:08:15.540Z,4.55
2018-12-12T04:09:18.777Z,4.67
2018-12-12T04:10:22.108Z,4.23
2018-12-12T04:11:25.391Z,4.28
2018-12-12T04:12:28.617Z,4.37
2018-12-12T04:13:31.865Z,4.27
2018-12-12T04:14:35.390Z,5.07
2018-12-12T04:15:38.638Z,5.30
2018-12-12T04:16:42.611Z,4.80
2018-12-12T04:17:45.859Z,4.40
2018-12-12T04:18:49.170Z,4.30
2018-12-12T04:19:52.587Z,4.97
2018-12-12T04:20:55.811Z,4.77
2018-12-12T04:21:59.336Z,4.35
2018-12-12T04:23:02.566Z,4.20
2018-12-12T04:24:05.796Z,4.62
2018-12-12T04:25:09.199Z,4.87
2018-12-12T04:26:12.988Z,5.43
2018-12-12T04:27:16.256Z,4.90
2018-12-12T04:28:19.495Z,5.12
2018-12-12T04:29:22.749Z,4.80
2018-12-12T04:30:25.992Z,4.47
2018-12-12T04:31:29.242Z,4.80
2018-12-12T04:32:32.493Z,4.87
2018-12-12T04:33:35.728Z,4.65
2018-12-12T04:34:38.975Z,4.75
2018-12-12T04:35:42.715Z,5.70
2018-12-12T04:36:45.943Z,5.45
2018-12-12T04:37:49.291Z,5.22
2018-12-12T04:38:53.170Z,4.83
2018-12-12T04:39:56.419Z,4.33
2018-12-12T04:40:59.670Z,4.83
2018-12-12T04:42:02.924Z,5.90
2018-12-12T04:43:06.149Z,5.23
2018-12-12T04:44:09.399Z,5.27
2018-12-12T04:45:13.511Z,4.67
2018-12-12T04:46:16.791Z,5.17
2018-12-12T04:47:20.076Z,5.27
2018-12-12T04:48:23.314Z,5.85
2018-12-12T04:49:26.649Z,5.83
2018-12-12T04:50:29.866Z,4.93
2018-12-12T04:51:33.220Z,4.78
2018-12-12T04:52:36.444Z,4.97
2018-12-12T04:53:39.677Z,4.87
2018-12-12T04:54:42.976Z,5.33
2018-12-12T04:55:46.281Z,5.15
2018-12-12T04:56:49.537Z,5.40
2018-12-12T04:57:52.774Z,5.23
2018-12-12T04:58:56.392Z,5.67
2018-12-12T04:59:59.657Z,5.62
2018-12-12T05:01:02.890Z,4.93
2018-12-12T05:02:06.436Z,5.50
2018-12-12T05:03:09.803Z,5.03
2018-12-12T05:04:13.862Z,5.62
2018-12-12T05:05:17.101Z,5.85
2018-12-12T05:06:20.406Z,5.97
2018-12-12T05:07:24.494Z,4.95
2018-12-12T05:08:27.921Z,5.95
2018-12-12T05:09:31.147Z,5.67
2018-12-12T05:10:34.479Z,6.12
2018-12-12T05:11:37.723Z,5.28
2018-12-12T05:12:40.976Z,5.45
2018-12-12T05:13:44.364Z,6.03
2018-12-12T05:14:47.582Z,5.55
2018-12-12T05:15:51.983Z,6.20
2018-12-12T05:16:55.217Z,5.58
2018-12-12T05:17:58.488Z,5.63
2018-12-12T05:19:01.802Z,6.00
2018-12-12T05:20:05.168Z,5.30
2018-12-12T05:21:08.435Z,5.37
2018-12-12T05:22:11.664Z,6.40
2018-12-12T05:23:14.918Z,5.60
2018-12-12T05:24:18.173Z,5.50
2018-12-12T05:25:21.410Z,6.27
2018-12-12T05:26:24.667Z,6.10
2018-12-12T05:27:27.920Z,5.37
2018-12-12T05:28:31.156Z,6.57
2018-12-12T05:29:34.420Z,6.00
2018-12-12T05:30:38.083Z,6.70
2018-12-12T05:31:41.363Z,6.17
2018-12-12T05:32:44.566Z,6.30
2018-12-12T05:33:47.814Z,6.25
2018-12-12T05:34:51.098Z,6.30
2018-12-12T05:35:54.296Z,6.33
2018-12-12T05:36:57.536Z,6.12
2018-12-12T05:38:00.757Z,6.60
2018-12-12T05:39:06.537Z,6.37
2018-12-12T05:40:10.174Z,5.70
2018-12-12T05:41:13.446Z,6.40
2018-12-12T05:42:16.661Z,5.53
2018-12-12T05:43:19.976Z,5.83
2018-12-12T05:44:23.237Z,5.95
2018-12-12T05:45:26.602Z,6.28
2018-12-12T05:46:29.882Z,5.42
2018-12-12T05:47:33.105Z,6.45
2018-12-12T05:48:36.384Z,4.97
2018-12-12T05:49:39.658Z,5.25
2018-12-12T05:50:43.059Z,4.63
2018-12-12T05:51:46.338Z,4.57
2018-12-12T05:52:49.557Z,4.10
2018-12-12T05:53:52.789Z,4.33
2018-12-12T05:54:56.013Z,5.10
2018-12-12T05:56:02.413Z,5.07
2018-12-12T05:57:04.558Z,5.53
2018-12-12T05:58:07.780Z,6.08
2018-12-12T05:59:11.010Z,5.67
2018-12-12T06:00:14.606Z,5.60
2018-12-12T06:01:17.818Z,5.10
2018-12-12T06:02:21.084Z,5.53
2018-12-12T06:03:24.339Z,5.87
2018-12-12T06:04:27.618Z,5.57
2018-12-12T06:05:30.993Z,6.30
2018-12-12T06:06:34.235Z,6.97
2018-12-12T06:07:37.515Z,6.30
2018-12-12T06:08:40.749Z,5.60
2018-12-12T06:09:43.987Z,5.63
2018-12-12T06:10:47.221Z,6.20
2018-12-12T06:11:50.474Z,6.50
2018-12-12T06:12:53.761Z,7.53
2018-12-12T06:13:57.062Z,6.30
2018-12-12T06:15:01.223Z,6.57
2018-12-12T06:16:04.917Z,7.87
2018-12-12T06:17:08.136Z,7.15
2018-12-12T06:18:11.393Z,6.65
2018-12-12T06:19:14.648Z,7.05
2018-12-12T06:20:18.077Z,5.70
2018-12-12T06:21:21.327Z,7.10
2018-12-12T06:22:24.916Z,7.75
2018-12-12T06:23:28.157Z,6.58
2018-12-12T06:24:31.421Z,6.90
2018-12-12T06:25:34.694Z,6.50
2018-12-12T06:26:37.972Z,6.25
2018-12-12T06:27:41.267Z,7.67
2018-12-12T06:28:44.824Z,6.87
2018-12-12T06:29:48.087Z,7.53
2018-12-12T06:30:51.460Z,7.40
2018-12-12T06:31:54.728Z,6.75
2018-12-12T06:32:57.980Z,6.10
2018-12-12T06:34:01.227Z,6.43
2018-12-12T06:35:05.189Z,6.30
2018-12-12T06:36:08.438Z,7.30
2018-12-12T06:37:11.672Z,6.80
2018-12-12T06:38:15.047Z,6.53
2018-12-12T06:39:18.325Z,7.00
2018-12-12T06:40:21.589Z,6.53
2018-12-12T06:41:24.881Z,7.47
2018-12-12T06:42:28.135Z,7.77
2018-12-12T06:43:31.400Z,7.47
2018-12-12T06:44:34.633Z,7.00
2018-12-12T06:45:37.865Z,6.60
2018-12-12T06:46:41.116Z,7.13
2018-12-12T06:47:44.409Z,7.37
2018-12-12T06:48:47.722Z,6.97
2018-12-12T06:49:50.948Z,7.10
2018-12-12T06:50:54.195Z,8.20
2018-12-12T06:51:57.430Z,7.40
2018-12-12T06:53:00.704Z,8.30
2018-12-12T06:54:03.942Z,6.95
2018-12-12T06:55:07.239Z,7.28
2018-12-12T06:56:10.503Z,7.22
2018-12-12T06:57:13.843Z,7.17
2018-12-12T06:58:17.115Z,6.17
2018-12-12T06:59:20.373Z,6.42
2018-12-12T07:00:23.591Z,6.92
2018-12-12T07:01:26.863Z,7.10
2018-12-12T07:02:30.144Z,6.87
2018-12-12T07:03:33.397Z,6.60
2018-12-12T07:04:36.707Z,7.10
2018-12-12T07:05:40.415Z,7.25
2018-12-12T07:06:43.652Z,7.00
2018-12-12T07:07:47.020Z,7.28
2018-12-12T07:08:50.345Z,6.77
2018-12-12T07:09:53.641Z,6.92
2018-12-12T07:10:56.882Z,7.28
2018-12-12T07:12:00.127Z,7.30
2018-12-12T07:13:03.489Z,6.77
2018-12-12T07:14:06.712Z,6.87
2018-12-12T07:15:09.971Z,7.25
2018-12-12T07:16:13.289Z,6.80
2018-12-12T07:17:16.561Z,6.80
2018-12-12T07:18:19.858Z,9.07
2018-12-12T07:19:23.130Z,8.88
2018-12-12T07:20:26.366Z,7.60
2018-12-12T07:21:29.618Z,8.50
2018-12-12T07:22:33.030Z,7.73
2018-12-12T07:23:36.293Z,8.23
2018-12-12T07:24:39.668Z,9.67
2018-12-12T07:25:42.888Z,8.50
2018-12-12T07:26:46.196Z,8.30
2018-12-12T07:27:49.480Z,8.60
2018-12-12T07:28:52.744Z,8.10
2018-12-12T07:29:55.986Z,7.73
2018-12-12T07:30:59.276Z,8.43
2018-12-12T07:32:02.821Z,8.65
2018-12-12T07:33:06.075Z,7.62
2018-12-12T07:34:09.452Z,7.67
2018-12-12T07:35:12.714Z,7.22
2018-12-12T07:36:16.381Z,7.22
2018-12-12T07:37:19.624Z,7.28
2018-12-12T07:38:22.865Z,7.35
2018-12-12T07:39:26.137Z,8.23
2018-12-12T07:40:29.379Z,8.45
2018-12-12T07:41:32.700Z,8.20
2018-12-12T07:42:35.935Z,8.23
2018-12-12T07:43:39.163Z,7.60
2018-12-12T07:44:42.430Z,7.80
2018-12-12T07:45:45.671Z,8.10
2018-12-12T07:46:49.103Z,7.73
2018-12-12T07:47:52.463Z,8.13
2018-12-12T07:48:55.768Z,7.77
2018-12-12T07:49:59.040Z,8.33
2018-12-12T07:51:02.379Z,8.50
2018-12-12T07:52:05.735Z,8.93
2018-12-12T07:53:08.991Z,8.13
2018-12-12T07:54:12.228Z,8.30
2018-12-12T07:55:15.491Z,8.90
2018-12-12T07:56:18.829Z,7.87
2018-12-12T07:57:22.065Z,7.60
2018-12-12T07:58:25.327Z,9.37
2018-12-12T07:59:28.620Z,8.30
2018-12-12T08:00:31.855Z,9.03
2018-12-12T08:01:35.120Z,8.80
2018-12-12T08:02:38.389Z,9.60
2018-12-12T08:03:41.615Z,8.50
2018-12-12T08:04:44.875Z,8.70
2018-12-12T08:05:48.127Z,8.53
2018-12-12T08:06:51.380Z,8.43
2018-12-12T08:07:54.685Z,8.13
2018-12-12T08:08:57.932Z,8.45
2018-12-12T08:10:01.149Z,8.55
2018-12-12T08:11:04.462Z,8.93
2018-12-12T08:12:07.722Z,8.48
2018-12-12T08:13:11.047Z,8.65
2018-12-12T08:14:14.283Z,9.63
2018-12-12T08:15:17.589Z,9.13
2018-12-12T08:16:20.847Z,9.00
2018-12-12T08:17:24.178Z,8.03
2018-12-12T08:18:27.391Z,8.80
2018-12-12T08:19:30.639Z,9.60
2018-12-12T08:20:33.892Z,8.38
2018-12-12T08:21:37.178Z,9.10
2018-12-12T08:22:40.495Z,8.67
2018-12-12T08:23:43.745Z,8.93
2018-12-12T08:24:46.971Z,8.30
2018-12-12T08:25:50.310Z,8.90
2018-12-12T08:26:53.533Z,8.78
2018-12-12T08:27:56.778Z,8.40
2018-12-12T08:29:00.024Z,8.17
2018-12-12T08:30:03.992Z,8.67
2018-12-12T08:31:07.330Z,9.07
2018-12-12T08:32:10.630Z,8.97
2018-12-12T08:33:15.035Z,9.00
2018-12-12T08:34:18.428Z,9.10
2018-12-12T08:35:21.705Z,8.90
2018-12-12T08:36:24.952Z,8.98
2018-12-12T08:37:28.228Z,9.27
2018-12-12T08:38:31.488Z,9.03
2018-12-12T08:39:34.800Z,8.50
2018-12-12T08:40:38.054Z,8.60
2018-12-12T08:41:41.303Z,9.00
2018-12-12T08:42:44.555Z,8.87
2018-12-12T08:43:47.891Z,9.00
2018-12-12T08:44:51.144Z,8.90
2018-12-12T08:45:54.408Z,8.70
2018-12-12T08:46:57.624Z,9.03
2018-12-12T08:48:00.890Z,10.32
2018-12-12T08:49:04.197Z,9.20
2018-12-12T08:50:08.077Z,9.18
2018-12-12T08:51:11.400Z,9.00
2018-12-12T08:52:14.658Z,9.03
2018-12-12T08:53:18.142Z,8.80
2018-12-12T08:54:21.393Z,8.15
2018-12-12T08:55:24.730Z,7.33
2018-12-12T08:56:28.024Z,8.43
2018-12-12T08:57:31.253Z,8.80
2018-12-12T08:58:34.482Z,8.17
2018-12-12T08:59:37.743Z,9.58
2018-12-12T09:00:41.006Z,8.83
2018-12-12T09:01:44.285Z,9.70
2018-12-12T09:02:48.557Z,8.33
2018-12-12T09:03:51.931Z,8.43
2018-12-12T09:04:55.136Z,8.37
2018-12-12T09:05:58.363Z,8.80
2018-12-12T09:07:01.632Z,8.73
2018-12-12T09:08:04.991Z,8.43
2018-12-12T09:09:08.241Z,8.53
2018-12-12T09:10:11.542Z,9.45
2018-12-12T09:11:15.013Z,8.93
2018-12-12T09:12:18.376Z,8.45
2018-12-12T09:13:21.702Z,8.57
2018-12-12T09:14:24.952Z,8.83
2018-12-12T09:15:28.221Z,9.17
2018-12-12T09:16:31.481Z,8.60
2018-12-12T09:17:34.740Z,9.43
2018-12-12T09:18:37.986Z,8.75
2018-12-12T09:19:41.299Z,9.30
2018-12-12T09:20:45.288Z,9.08
2018-12-12T09:21:48.584Z,10.15
2018-12-12T09:22:51.945Z,8.83
2018-12-12T09:23:55.317Z,8.73
2018-12-12T09:24:58.659Z,9.08
2018-12-12T09:26:01.938Z,9.60
2018-12-12T09:27:05.196Z,9.13
2018-12-12T09:28:08.610Z,9.18
2018-12-12T09:29:11.842Z,9.30
2018-12-12T09:30:15.082Z,9.30
2018-12-12T09:31:18.330Z,9.55
2018-12-12T09:32:21.576Z,9.38
2018-12-12T09:33:26.240Z,9.25
2018-12-12T09:34:29.598Z,9.73
2018-12-12T09:35:32.876Z,8.77
2018-12-12T09:36:36.322Z,9.40
2018-12-12T09:37:39.566Z,9.15
2018-12-12T09:38:42.856Z,9.23
2018-12-12T09:39:46.120Z,9.47
2018-12-12T09:40:49.419Z,9.13
2018-12-12T09:41:53.038Z,9.30
2018-12-12T09:42:56.286Z,8.97
2018-12-12T09:43:59.539Z,9.85
2018-12-12T09:45:02.837Z,8.83
2018-12-12T09:46:06.148Z,9.08
2018-12-12T09:47:09.408Z,8.87
2018-12-12T09:48:19.134Z,10.03
2018-12-12T09:49:17.975Z,9.90
2018-12-12T09:50:21.255Z,9.70
2018-12-12T09:51:24.485Z,10.13
2018-12-12T09:52:27.725Z,9.03
2018-12-12T09:53:30.971Z,8.80
2018-12-12T09:54:34.221Z,8.70
2018-12-12T09:55:37.550Z,9.28
2018-12-12T09:56:40.777Z,9.18
2018-12-12T09:57:44.094Z,9.88
2018-12-12T09:58:47.377Z,10.03
2018-12-12T09:59:50.760Z,9.20
2018-12-12T10:00:54.040Z,10.05
2018-12-12T10:01:57.439Z,9.38
2018-12-12T10:03:00.792Z,10.40
2018-12-12T10:04:04.089Z,9.35
2018-12-12T10:05:07.388Z,9.65
2018-12-12T10:06:10.646Z,9.17
2018-12-12T10:07:13.948Z,9.13
2018-12-12T10:08:17.202Z,9.07
2018-12-12T10:09:20.443Z,10.53
2018-12-12T10:10:23.690Z,9.73
2018-12-12T10:11:26.972Z,9.65
2018-12-12T10:12:30.196Z,9.87
2018-12-12T10:13:33.466Z,9.77
2018-12-12T10:14:36.698Z,9.43
2018-12-12T10:15:39.977Z,9.60
2018-12-12T10:16:43.222Z,8.97
2018-12-12T10:17:46.524Z,9.75
2018-12-12T10:18:49.893Z,9.27
2018-12-12T10:19:53.128Z,9.97
2018-12-12T10:20:56.413Z,11.00
2018-12-12T10:21:59.867Z,10.27
2018-12-12T10:23:03.160Z,9.67
2018-12-12T10:24:06.398Z,9.43
2018-12-12T10:25:09.675Z,9.53
2018-12-12T10:26:12.891Z,9.63
2018-12-12T10:27:16.117Z,9.30
2018-12-12T10:28:19.402Z,8.90
2018-12-12T10:29:22.631Z,9.63
2018-12-12T10:30:25.895Z,9.43
2018-12-12T10:31:29.253Z,9.23
2018-12-12T10:32:32.555Z,9.28
2018-12-12T10:33:37.784Z,9.55
2018-12-12T10:34:41.241Z,9.45
2018-12-12T10:35:44.499Z,9.10
2018-12-12T10:36:47.755Z,9.90
2018-12-12T10:37:50.995Z,10.03
2018-12-12T10:38:54.285Z,9.83
2018-12-12T10:39:57.543Z,9.68
2018-12-12T10:41:00.782Z,10.40
2018-12-12T10:42:04.050Z,10.68
2018-12-12T10:43:07.321Z,9.98
2018-12-12T10:44:10.568Z,10.30
2018-12-12T10:45:13.828Z,9.30
2018-12-12T10:46:17.082Z,9.10
2018-12-12T10:47:20.419Z,10.03
2018-12-12T10:48:23.688Z,9.65
2018-12-12T10:49:26.913Z,10.33
2018-12-12T10:50:30.191Z,10.33
2018-12-12T10:51:33.496Z,9.40
2018-12-12T10:52:36.822Z,9.10
2018-12-12T10:53:40.120Z,10.07
2018-12-12T10:54:43.362Z,9.50
2018-12-12T10:55:46.726Z,9.90
2018-12-12T10:56:50.018Z,9.50
2018-12-12T10:57:53.327Z,8.47
2018-12-12T10:58:56.571Z,8.73
2018-12-12T10:59:59.820Z,8.50
2018-12-12T11:01:08.751Z,9.63
2018-12-12T11:02:17.559Z,9.10
2018-12-12T11:03:32.478Z,10.30
2018-12-12T11:04:35.722Z,9.73
2018-12-12T11:05:38.953Z,10.07
2018-12-12T11:06:42.196Z,10.63
2018-12-12T11:07:45.473Z,9.90
2018-12-12T11:08:48.712Z,10.40
2018-12-12T11:09:51.974Z,10.28
2018-12-12T11:10:55.205Z,9.87
2018-12-12T11:11:58.463Z,10.03
2018-12-12T11:13:01.826Z,10.67
2018-12-12T11:14:05.163Z,10.25
2018-12-12T11:15:08.497Z,9.97
2018-12-12T11:16:11.739Z,10.50
2018-12-12T11:17:15.032Z,9.20
2018-12-12T11:18:18.294Z,9.63
2018-12-12T11:19:21.851Z,10.00
2018-12-12T11:20:25.134Z,9.70
2018-12-12T11:21:28.598Z,10.37
2018-12-12T11:22:31.797Z,10.23
2018-12-12T11:23:35.120Z,10.60
2018-12-12T11:24:38.366Z,9.73
2018-12-12T11:25:41.677Z,10.27
2018-12-12T11:26:44.995Z,9.80
2018-12-12T11:27:48.434Z,9.43
2018-12-12T11:28:51.702Z,10.90
2018-12-12T11:29:54.916Z,10.93
2018-12-12T11:30:58.203Z,11.08
2018-12-12T11:32:01.490Z,10.32
2018-12-12T11:33:04.748Z,9.80
2018-12-12T11:34:08.223Z,9.40
2018-12-12T11:35:11.517Z,10.30
2018-12-12T11:36:14.850Z,10.35
2018-12-12T11:37:18.120Z,11.88
2018-12-12T11:38:21.415Z,11.15
2018-12-12T11:39:24.771Z,11.48
2018-12-12T11:40:28.048Z,10.68
2018-12-12T11:41:32.394Z,11.08
2018-12-12T11:42:36.273Z,10.60
2018-12-12T11:43:39.578Z,10.90
2018-12-12T11:44:42.843Z,10.80
2018-12-12T11:45:46.138Z,10.83
2018-12-12T11:46:49.424Z,10.50
2018-12-12T11:47:52.750Z,10.63
2018-12-12T11:48:56.021Z,10.57
2018-12-12T11:49:59.262Z,10.87
2018-12-12T11:51:02.520Z,11.20
2018-12-12T11:52:05.872Z,10.20
2018-12-12T11:53:09.218Z,10.20
2018-12-12T11:54:12.481Z,10.68
2018-12-12T11:55:15.781Z,11.03
2018-12-12T11:56:19.091Z,10.32
2018-12-12T11:57:22.633Z,10.20
2018-12-12T11:58:26.102Z,10.30
2018-12-12T11:59:29.357Z,10.23
2018-12-12T12:00:32.608Z,11.40
2018-12-12T12:01:36.088Z,11.00
2018-12-12T12:02:39.401Z,10.13
2018-12-12T12:03:42.637Z,10.23
2018-12-12T12:04:45.906Z,10.32
2018-12-12T12:05:49.160Z,11.12
2018-12-12T12:06:52.436Z,9.80
2018-12-12T12:07:55.693Z,10.18
2018-12-12T12:08:58.937Z,9.88
2018-12-12T12:10:02.193Z,9.98
2018-12-12T12:11:05.533Z,10.85
2018-12-12T12:12:08.821Z,10.85
2018-12-12T12:13:12.172Z,10.45
2018-12-12T12:14:15.426Z,10.80
2018-12-12T12:15:18.691Z,10.47
2018-12-12T12:16:21.967Z,11.23
2018-12-12T12:17:25.270Z,10.70
2018-12-12T12:18:28.514Z,11.10
2018-12-12T12:19:31.769Z,11.43
2018-12-12T12:20:35.060Z,10.10
2018-12-12T12:21:38.398Z,10.03
2018-12-12T12:22:41.654Z,10.47
2018-12-12T12:23:44.895Z,10.57
2018-12-12T12:24:48.159Z,9.80
2018-12-12T12:25:51.429Z,10.30
2018-12-12T12:26:55.374Z,10.47
2018-12-12T12:27:58.652Z,10.43
2018-12-12T12:29:02.092Z,10.05
2018-12-12T12:30:06.121Z,9.70
2018-12-12T12:31:09.405Z,9.90
2018-12-12T12:32:12.639Z,9.75
2018-12-12T12:33:15.945Z,10.00
2018-12-12T12:34:19.223Z,10.13
2018-12-12T12:35:22.491Z,10.60
2018-12-12T12:36:25.941Z,10.70
2018-12-12T12:37:29.196Z,10.65
2018-12-12T12:38:32.552Z,9.33
2018-12-12T12:39:36.049Z,9.80
2018-12-12T12:40:39.306Z,9.78
2018-12-12T12:41:42.570Z,10.10
2018-12-12T12:42:45.931Z,9.55
2018-12-12T12:43:49.216Z,9.33
2018-12-12T12:44:52.465Z,10.82
2018-12-12T12:45:55.714Z,9.78
2018-12-12T12:46:58.973Z,9.78
2018-12-12T12:48:02.323Z,9.65
2018-12-12T12:49:06.517Z,10.15
2018-12-12T12:50:09.770Z,10.32
2018-12-12T12:51:13.086Z,10.43
2018-12-12T12:52:16.419Z,9.80
2018-12-12T12:53:19.638Z,11.73
2018-12-12T12:54:23.634Z,10.00
2018-12-12T12:55:26.896Z,10.80
2018-12-12T12:56:30.151Z,10.70
2018-12-12T12:57:33.384Z,10.93
2018-12-12T12:58:36.680Z,9.60
2018-12-12T12:59:39.910Z,9.70
2018-12-12T13:00:43.183Z,10.43
2018-12-12T13:01:46.463Z,11.00
2018-12-12T13:02:49.689Z,9.90
2018-12-12T13:03:52.944Z,10.47
2018-12-12T13:04:56.208Z,10.20
2018-12-12T13:05:59.466Z,9.93
2018-12-12T13:07:02.698Z,9.80
2018-12-12T13:08:05.947Z,9.80
2018-12-12T13:09:09.549Z,9.30
2018-12-12T13:10:12.832Z,10.30
2018-12-12T13:11:16.079Z,10.03
2018-12-12T13:12:19.456Z,9.58
2018-12-12T13:13:23.238Z,10.77
2018-12-12T13:14:26.591Z,10.10
2018-12-12T13:15:30.631Z,9.78
2018-12-12T13:16:33.884Z,10.25
2018-12-12T13:17:37.138Z,9.78
2018-12-12T13:18:40.422Z,9.60
2018-12-12T13:19:43.710Z,9.53
2018-12-12T13:20:47.095Z,10.82
2018-12-12T13:21:50.438Z,10.05
2018-12-12T13:22:53.730Z,10.15
2018-12-12T13:23:57.057Z,10.55
2018-12-12T13:25:00.349Z,10.08
2018-12-12T13:26:03.644Z,10.07
2018-12-12T13:27:06.866Z,10.10
2018-12-12T13:28:10.156Z,10.03
2018-12-12T13:29:13.478Z,10.23
2018-12-12T13:30:16.783Z,9.60
2018-12-12T13:31:20.111Z,9.73
2018-12-12T13:32:23.696Z,9.83
2018-12-12T13:33:26.981Z,9.97
2018-12-12T13:34:30.950Z,10.30
2018-12-12T13:35:34.244Z,10.87
2018-12-12T13:36:37.504Z,9.45
2018-12-12T13:37:40.734Z,10.10
2018-12-12T13:38:44.017Z,9.53
2018-12-12T13:39:47.545Z,9.50
2018-12-12T13:40:50.882Z,10.03
2018-12-12T13:41:54.179Z,9.87
2018-12-12T13:42:57.524Z,9.37
2018-12-12T13:44:00.799Z,10.38
2018-12-12T13:45:04.557Z,9.60
2018-12-12T13:46:07.817Z,8.83
2018-12-12T13:47:17.111Z,9.50
2018-12-12T13:48:16.288Z,10.13
2018-12-12T13:49:19.619Z,10.47
2018-12-12T13:50:23.009Z,9.50
2018-12-12T13:51:26.270Z,9.85
2018-12-12T13:52:29.572Z,9.65
2018-12-12T13:53:32.919Z,9.10
2018-12-12T13:54:36.114Z,9.45
2018-12-12T13:55:39.359Z,10.05
2018-12-12T13:56:42.638Z,10.05
2018-12-12T13:57:45.881Z,9.08
2018-12-12T13:58:49.159Z,9.53
2018-12-12T13:59:52.461Z,9.28